sensor_id;sensor_type;location;lat;lon;timestamp;P1;durP1;ratioP1;P2;durP2;ratioP2
49296;SDS011;35163;48.878;18.040;2023-05-27T00:01:13;11.13;;;4.55;;
49296;SDS011;35163;48.878;18.040;2023-05-27T00:03:40;13.57;;;3.85;;
49296;SDS011;35163;48.878;18.040;2023-05-27T00:06:07;11.27;;;4.43;;
49296;SDS011;35163;48.878;18.040;2023-05-27T00:08:33;11.27;;;4.30;;
49296;SDS011;35163;48.878;18.040;2023-05-27T00:11:00;15.90;;;4.65;;
49296;SDS011;35163;48.878;18.040;2023-05-27T00:13:27;18.55;;;4.30;;
49296;SDS011;35163;48.878;18.040;2023-05-27T00:15:54;14.63;;;4.15;;
49296;SDS011;35163;48.878;18.040;2023-05-27T00:18:22;11.43;;;4.32;;
49296;SDS011;35163;48.878;18.040;2023-05-27T00:20:48;15.02;;;4.20;;
49296;SDS011;35163;48.878;18.040;2023-05-27T00:23:15;14.27;;;3.92;;
49296;SDS011;35163;48.878;18.040;2023-05-27T00:25:42;14.73;;;3.95;;
49296;SDS011;35163;48.878;18.040;2023-05-27T00:28:09;15.95;;;4.30;;
49296;SDS011;35163;48.878;18.040;2023-05-27T00:30:36;11.90;;;4.55;;
49296;SDS011;35163;48.878;18.040;2023-05-27T00:33:03;11.93;;;3.78;;
49296;SDS011;35163;48.878;18.040;2023-05-27T00:35:29;16.10;;;4.32;;
49296;SDS011;35163;48.878;18.040;2023-05-27T00:37:56;12.48;;;3.55;;
49296;SDS011;35163;48.878;18.040;2023-05-27T00:40:23;10.48;;;3.83;;
49296;SDS011;35163;48.878;18.040;2023-05-27T00:42:52;18.02;;;3.78;;
49296;SDS011;35163;48.878;18.040;2023-05-27T00:45:19;9.90;;;3.90;;
49296;SDS011;35163;48.878;18.040;2023-05-27T00:47:46;13.15;;;4.13;;
49296;SDS011;35163;48.878;18.040;2023-05-27T00:50:13;10.90;;;3.80;;
49296;SDS011;35163;48.878;18.040;2023-05-27T00:52:40;11.63;;;3.92;;
49296;SDS011;35163;48.878;18.040;2023-05-27T00:55:08;12.13;;;3.95;;
49296;SDS011;35163;48.878;18.040;2023-05-27T00:57:35;15.20;;;4.18;;
49296;SDS011;35163;48.878;18.040;2023-05-27T01:00:03;15.60;;;3.97;;
49296;SDS011;35163;48.878;18.040;2023-05-27T01:02:37;14.52;;;3.92;;
49296;SDS011;35163;48.878;18.040;2023-05-27T01:05:07;13.55;;;3.40;;
49296;SDS011;35163;48.878;18.040;2023-05-27T01:10:21;11.70;;;3.58;;
49296;SDS011;35163;48.878;18.040;2023-05-27T01:15:25;14.05;;;4.38;;
49296;SDS011;35163;48.878;18.040;2023-05-27T01:17:53;10.75;;;3.70;;
49296;SDS011;35163;48.878;18.040;2023-05-27T01:20:22;13.73;;;4.10;;
49296;SDS011;35163;48.878;18.040;2023-05-27T01:22:50;11.30;;;3.72;;
49296;SDS011;35163;48.878;18.040;2023-05-27T01:25:18;10.80;;;3.75;;
49296;SDS011;35163;48.878;18.040;2023-05-27T01:27:46;18.50;;;4.25;;
49296;SDS011;35163;48.878;18.040;2023-05-27T01:30:15;11.57;;;3.83;;
49296;SDS011;35163;48.878;18.040;2023-05-27T01:33:28;12.50;;;3.88;;
49296;SDS011;35163;48.878;18.040;2023-05-27T01:35:43;12.95;;;3.95;;
49296;SDS011;35163;48.878;18.040;2023-05-27T01:38:13;16.90;;;3.97;;
49296;SDS011;35163;48.878;18.040;2023-05-27T01:40:42;13.70;;;4.20;;
49296;SDS011;35163;48.878;18.040;2023-05-27T01:43:10;19.80;;;3.67;;
49296;SDS011;35163;48.878;18.040;2023-05-27T01:45:39;10.07;;;3.65;;
49296;SDS011;35163;48.878;18.040;2023-05-27T01:48:07;8.63;;;3.22;;
49296;SDS011;35163;48.878;18.040;2023-05-27T01:50:36;10.30;;;4.10;;
49296;SDS011;35163;48.878;18.040;2023-05-27T01:53:03;11.07;;;3.35;;
49296;SDS011;35163;48.878;18.040;2023-05-27T01:55:31;13.40;;;3.75;;
49296;SDS011;35163;48.878;18.040;2023-05-27T01:57:58;10.65;;;3.30;;
49296;SDS011;35163;48.878;18.040;2023-05-27T02:00:25;11.07;;;3.63;;
49296;SDS011;35163;48.878;18.040;2023-05-27T02:02:54;17.35;;;4.75;;
49296;SDS011;35163;48.878;18.040;2023-05-27T02:05:21;9.80;;;3.63;;
49296;SDS011;35163;48.878;18.040;2023-05-27T02:07:47;13.63;;;4.72;;
49296;SDS011;35163;48.878;18.040;2023-05-27T02:10:14;13.35;;;4.07;;
49296;SDS011;35163;48.878;18.040;2023-05-27T02:12:41;12.30;;;4.07;;
49296;SDS011;35163;48.878;18.040;2023-05-27T02:15:08;11.25;;;4.15;;
49296;SDS011;35163;48.878;18.040;2023-05-27T02:17:35;11.52;;;3.63;;
49296;SDS011;35163;48.878;18.040;2023-05-27T02:20:03;15.90;;;4.15;;
49296;SDS011;35163;48.878;18.040;2023-05-27T02:22:30;13.60;;;4.55;;
49296;SDS011;35163;48.878;18.040;2023-05-27T02:24:57;11.80;;;3.83;;
49296;SDS011;35163;48.878;18.040;2023-05-27T02:27:24;13.35;;;3.58;;
49296;SDS011;35163;48.878;18.040;2023-05-27T02:29:50;12.55;;;4.00;;
49296;SDS011;35163;48.878;18.040;2023-05-27T02:32:17;10.32;;;3.95;;
49296;SDS011;35163;48.878;18.040;2023-05-27T02:34:44;13.95;;;4.22;;
49296;SDS011;35163;48.878;18.040;2023-05-27T02:37:11;11.80;;;3.95;;
49296;SDS011;35163;48.878;18.040;2023-05-27T02:39:38;15.35;;;4.22;;
49296;SDS011;35163;48.878;18.040;2023-05-27T02:42:05;14.88;;;4.70;;
49296;SDS011;35163;48.878;18.040;2023-05-27T02:44:32;15.50;;;4.80;;
49296;SDS011;35163;48.878;18.040;2023-05-27T02:47:01;16.38;;;4.68;;
49296;SDS011;35163;48.878;18.040;2023-05-27T02:49:28;19.58;;;5.05;;
49296;SDS011;35163;48.878;18.040;2023-05-27T02:51:54;12.15;;;4.43;;
49296;SDS011;35163;48.878;18.040;2023-05-27T02:54:21;20.00;;;4.50;;
49296;SDS011;35163;48.878;18.040;2023-05-27T02:56:48;13.07;;;4.38;;
49296;SDS011;35163;48.878;18.040;2023-05-27T02:59:16;17.95;;;4.78;;
49296;SDS011;35163;48.878;18.040;2023-05-27T03:01:42;16.38;;;4.47;;
49296;SDS011;35163;48.878;18.040;2023-05-27T03:04:09;15.57;;;4.30;;
49296;SDS011;35163;48.878;18.040;2023-05-27T03:06:36;15.18;;;4.80;;
49296;SDS011;35163;48.878;18.040;2023-05-27T03:09:03;15.52;;;4.43;;
49296;SDS011;35163;48.878;18.040;2023-05-27T03:11:30;17.08;;;4.57;;
49296;SDS011;35163;48.878;18.040;2023-05-27T03:13:57;13.10;;;4.63;;
49296;SDS011;35163;48.878;18.040;2023-05-27T03:16:24;15.20;;;4.65;;
49296;SDS011;35163;48.878;18.040;2023-05-27T03:18:51;18.33;;;4.38;;
49296;SDS011;35163;48.878;18.040;2023-05-27T03:21:21;17.70;;;4.88;;
49296;SDS011;35163;48.878;18.040;2023-05-27T03:23:48;13.73;;;4.38;;
49296;SDS011;35163;48.878;18.040;2023-05-27T03:26:15;14.13;;;3.90;;
49296;SDS011;35163;48.878;18.040;2023-05-27T03:28:43;14.80;;;4.22;;
49296;SDS011;35163;48.878;18.040;2023-05-27T03:31:09;11.95;;;4.03;;
49296;SDS011;35163;48.878;18.040;2023-05-27T03:33:39;13.20;;;4.53;;
49296;SDS011;35163;48.878;18.040;2023-05-27T03:36:06;15.15;;;4.10;;
49296;SDS011;35163;48.878;18.040;2023-05-27T03:38:33;17.23;;;5.35;;
49296;SDS011;35163;48.878;18.040;2023-05-27T03:41:03;14.13;;;4.28;;
49296;SDS011;35163;48.878;18.040;2023-05-27T03:43:32;9.95;;;4.07;;
49296;SDS011;35163;48.878;18.040;2023-05-27T03:45:59;11.20;;;4.28;;
49296;SDS011;35163;48.878;18.040;2023-05-27T03:48:26;16.33;;;4.20;;
49296;SDS011;35163;48.878;18.040;2023-05-27T03:50:52;14.10;;;4.50;;
49296;SDS011;35163;48.878;18.040;2023-05-27T03:53:19;17.63;;;4.80;;
49296;SDS011;35163;48.878;18.040;2023-05-27T03:55:46;16.73;;;4.85;;
49296;SDS011;35163;48.878;18.040;2023-05-27T03:58:13;14.20;;;4.80;;
49296;SDS011;35163;48.878;18.040;2023-05-27T04:00:40;12.13;;;4.18;;
49296;SDS011;35163;48.878;18.040;2023-05-27T04:03:08;11.70;;;3.97;;
49296;SDS011;35163;48.878;18.040;2023-05-27T04:05:35;23.83;;;4.07;;
49296;SDS011;35163;48.878;18.040;2023-05-27T04:08:03;14.70;;;4.32;;
49296;SDS011;35163;48.878;18.040;2023-05-27T04:10:30;13.82;;;4.28;;
49296;SDS011;35163;48.878;18.040;2023-05-27T04:12:56;12.23;;;4.57;;
49296;SDS011;35163;48.878;18.040;2023-05-27T04:15:23;12.50;;;4.32;;
49296;SDS011;35163;48.878;18.040;2023-05-27T04:17:50;16.65;;;4.78;;
49296;SDS011;35163;48.878;18.040;2023-05-27T04:20:16;14.98;;;4.15;;
49296;SDS011;35163;48.878;18.040;2023-05-27T04:22:43;14.57;;;4.10;;
49296;SDS011;35163;48.878;18.040;2023-05-27T04:25:10;15.68;;;4.90;;
49296;SDS011;35163;48.878;18.040;2023-05-27T04:27:37;14.00;;;4.13;;
49296;SDS011;35163;48.878;18.040;2023-05-27T04:30:04;18.63;;;4.35;;
49296;SDS011;35163;48.878;18.040;2023-05-27T04:32:34;16.05;;;4.45;;
49296;SDS011;35163;48.878;18.040;2023-05-27T04:35:07;15.27;;;3.83;;
49296;SDS011;35163;48.878;18.040;2023-05-27T04:37:35;20.60;;;4.38;;
49296;SDS011;35163;48.878;18.040;2023-05-27T04:40:06;19.25;;;5.03;;
49296;SDS011;35163;48.878;18.040;2023-05-27T04:42:34;15.05;;;4.05;;
49296;SDS011;35163;48.878;18.040;2023-05-27T04:45:05;18.90;;;4.30;;
49296;SDS011;35163;48.878;18.040;2023-05-27T04:47:33;12.02;;;4.15;;
49296;SDS011;35163;48.878;18.040;2023-05-27T04:49:59;14.82;;;5.13;;
49296;SDS011;35163;48.878;18.040;2023-05-27T04:52:30;14.50;;;4.72;;
49296;SDS011;35163;48.878;18.040;2023-05-27T04:55:05;15.55;;;4.47;;
49296;SDS011;35163;48.878;18.040;2023-05-27T04:57:34;20.23;;;4.60;;
49296;SDS011;35163;48.878;18.040;2023-05-27T05:00:00;17.02;;;4.93;;
49296;SDS011;35163;48.878;18.040;2023-05-27T05:02:30;14.02;;;4.20;;
49296;SDS011;35163;48.878;18.040;2023-05-27T05:05:04;20.50;;;4.78;;
49296;SDS011;35163;48.878;18.040;2023-05-27T05:07:32;14.85;;;4.30;;
49296;SDS011;35163;48.878;18.040;2023-05-27T05:10:07;11.65;;;4.07;;
49296;SDS011;35163;48.878;18.040;2023-05-27T05:12:35;15.68;;;4.55;;
49296;SDS011;35163;48.878;18.040;2023-05-27T05:15:05;15.82;;;4.25;;
49296;SDS011;35163;48.878;18.040;2023-05-27T05:17:33;15.65;;;4.93;;
49296;SDS011;35163;48.878;18.040;2023-05-27T05:20:00;12.40;;;3.85;;
49296;SDS011;35163;48.878;18.040;2023-05-27T05:22:27;15.57;;;5.05;;
49296;SDS011;35163;48.878;18.040;2023-05-27T05:24:55;16.27;;;4.32;;
49296;SDS011;35163;48.878;18.040;2023-05-27T05:27:22;10.20;;;3.67;;
49296;SDS011;35163;48.878;18.040;2023-05-27T05:29:48;13.73;;;4.07;;
49296;SDS011;35163;48.878;18.040;2023-05-27T05:32:15;16.13;;;5.00;;
49296;SDS011;35163;48.878;18.040;2023-05-27T05:34:42;15.63;;;4.45;;
49296;SDS011;35163;48.878;18.040;2023-05-27T05:37:09;12.75;;;4.22;;
49296;SDS011;35163;48.878;18.040;2023-05-27T05:39:37;11.82;;;3.80;;
49296;SDS011;35163;48.878;18.040;2023-05-27T05:42:04;13.95;;;4.47;;
49296;SDS011;35163;48.878;18.040;2023-05-27T05:44:32;14.52;;;4.10;;
49296;SDS011;35163;48.878;18.040;2023-05-27T05:47:00;15.77;;;4.07;;
49296;SDS011;35163;48.878;18.040;2023-05-27T05:49:29;17.35;;;4.53;;
49296;SDS011;35163;48.878;18.040;2023-05-27T05:51:56;15.05;;;4.20;;
49296;SDS011;35163;48.878;18.040;2023-05-27T05:54:23;19.02;;;4.10;;
49296;SDS011;35163;48.878;18.040;2023-05-27T05:56:49;11.90;;;4.15;;
49296;SDS011;35163;48.878;18.040;2023-05-27T05:59:16;14.52;;;3.97;;
49296;SDS011;35163;48.878;18.040;2023-05-27T06:01:43;14.63;;;4.25;;
49296;SDS011;35163;48.878;18.040;2023-05-27T06:04:10;11.30;;;3.50;;
49296;SDS011;35163;48.878;18.040;2023-05-27T06:06:36;16.35;;;4.38;;
49296;SDS011;35163;48.878;18.040;2023-05-27T06:09:04;17.30;;;4.78;;
49296;SDS011;35163;48.878;18.040;2023-05-27T06:11:31;16.80;;;4.40;;
49296;SDS011;35163;48.878;18.040;2023-05-27T06:13:58;12.85;;;4.13;;
49296;SDS011;35163;48.878;18.040;2023-05-27T06:16:27;16.95;;;3.97;;
49296;SDS011;35163;48.878;18.040;2023-05-27T06:18:55;13.55;;;4.00;;
49296;SDS011;35163;48.878;18.040;2023-05-27T06:21:22;15.05;;;4.07;;
49296;SDS011;35163;48.878;18.040;2023-05-27T06:23:48;10.60;;;4.10;;
49296;SDS011;35163;48.878;18.040;2023-05-27T06:26:15;14.27;;;4.07;;
49296;SDS011;35163;48.878;18.040;2023-05-27T06:28:42;18.65;;;4.55;;
49296;SDS011;35163;48.878;18.040;2023-05-27T06:31:11;13.48;;;4.65;;
49296;SDS011;35163;48.878;18.040;2023-05-27T06:33:43;19.60;;;4.57;;
49296;SDS011;35163;48.878;18.040;2023-05-27T06:36:12;15.43;;;4.57;;
49296;SDS011;35163;48.878;18.040;2023-05-27T06:38:39;13.52;;;4.22;;
49296;SDS011;35163;48.878;18.040;2023-05-27T06:41:06;15.75;;;3.80;;
49296;SDS011;35163;48.878;18.040;2023-05-27T06:43:32;14.10;;;3.97;;
49296;SDS011;35163;48.878;18.040;2023-05-27T06:45:59;15.98;;;4.20;;
49296;SDS011;35163;48.878;18.040;2023-05-27T06:48:30;16.42;;;3.83;;
49296;SDS011;35163;48.878;18.040;2023-05-27T06:50:59;12.63;;;4.25;;
49296;SDS011;35163;48.878;18.040;2023-05-27T06:53:27;12.65;;;3.78;;
49296;SDS011;35163;48.878;18.040;2023-05-27T06:55:57;21.23;;;5.53;;
49296;SDS011;35163;48.878;18.040;2023-05-27T06:58:23;16.10;;;5.03;;
49296;SDS011;35163;48.878;18.040;2023-05-27T07:00:50;21.60;;;5.38;;
49296;SDS011;35163;48.878;18.040;2023-05-27T07:03:17;19.90;;;5.50;;
49296;SDS011;35163;48.878;18.040;2023-05-27T07:05:46;23.02;;;5.43;;
49296;SDS011;35163;48.878;18.040;2023-05-27T07:08:13;19.08;;;5.63;;
49296;SDS011;35163;48.878;18.040;2023-05-27T07:10:42;14.68;;;5.10;;
49296;SDS011;35163;48.878;18.040;2023-05-27T07:13:09;11.38;;;3.63;;
49296;SDS011;35163;48.878;18.040;2023-05-27T07:15:40;13.95;;;4.55;;
49296;SDS011;35163;48.878;18.040;2023-05-27T07:18:07;19.25;;;4.55;;
49296;SDS011;35163;48.878;18.040;2023-05-27T07:20:36;20.67;;;6.93;;
49296;SDS011;35163;48.878;18.040;2023-05-27T07:23:05;20.33;;;6.63;;
49296;SDS011;35163;48.878;18.040;2023-05-27T07:25:31;25.60;;;6.63;;
49296;SDS011;35163;48.878;18.040;2023-05-27T07:27:58;41.63;;;11.00;;
49296;SDS011;35163;48.878;18.040;2023-05-27T07:30:25;23.88;;;8.02;;
49296;SDS011;35163;48.878;18.040;2023-05-27T07:32:54;26.65;;;7.15;;
49296;SDS011;35163;48.878;18.040;2023-05-27T07:35:21;19.25;;;5.00;;
49296;SDS011;35163;48.878;18.040;2023-05-27T07:37:48;13.60;;;4.85;;
49296;SDS011;35163;48.878;18.040;2023-05-27T07:40:15;12.93;;;4.05;;
49296;SDS011;35163;48.878;18.040;2023-05-27T07:42:43;14.55;;;4.70;;
49296;SDS011;35163;48.878;18.040;2023-05-27T07:45:10;14.45;;;5.10;;
49296;SDS011;35163;48.878;18.040;2023-05-27T07:47:40;17.90;;;4.15;;
49296;SDS011;35163;48.878;18.040;2023-05-27T07:50:09;13.90;;;4.05;;
49296;SDS011;35163;48.878;18.040;2023-05-27T07:52:36;14.18;;;4.20;;
49296;SDS011;35163;48.878;18.040;2023-05-27T07:55:03;18.23;;;4.32;;
49296;SDS011;35163;48.878;18.040;2023-05-27T07:57:30;11.93;;;3.47;;
49296;SDS011;35163;48.878;18.040;2023-05-27T07:59:56;16.42;;;4.35;;
49296;SDS011;35163;48.878;18.040;2023-05-27T08:02:23;12.57;;;3.50;;
49296;SDS011;35163;48.878;18.040;2023-05-27T08:04:51;11.95;;;4.13;;
49296;SDS011;35163;48.878;18.040;2023-05-27T08:07:19;11.73;;;3.45;;
49296;SDS011;35163;48.878;18.040;2023-05-27T08:09:48;15.85;;;3.60;;
49296;SDS011;35163;48.878;18.040;2023-05-27T08:12:15;12.60;;;4.20;;
49296;SDS011;35163;48.878;18.040;2023-05-27T08:14:42;18.58;;;5.25;;
49296;SDS011;35163;48.878;18.040;2023-05-27T08:17:08;13.60;;;3.67;;
49296;SDS011;35163;48.878;18.040;2023-05-27T08:19:35;12.30;;;3.83;;
49296;SDS011;35163;48.878;18.040;2023-05-27T08:22:02;14.32;;;3.40;;
49296;SDS011;35163;48.878;18.040;2023-05-27T08:24:31;14.30;;;3.60;;
49296;SDS011;35163;48.878;18.040;2023-05-27T08:26:58;15.27;;;3.97;;
49296;SDS011;35163;48.878;18.040;2023-05-27T08:29:27;11.68;;;3.53;;
49296;SDS011;35163;48.878;18.040;2023-05-27T08:31:57;11.45;;;3.45;;
49296;SDS011;35163;48.878;18.040;2023-05-27T08:34:26;11.13;;;3.15;;
49296;SDS011;35163;48.878;18.040;2023-05-27T08:36:53;15.35;;;4.05;;
49296;SDS011;35163;48.878;18.040;2023-05-27T08:39:22;15.07;;;3.47;;
49296;SDS011;35163;48.878;18.040;2023-05-27T08:41:49;21.55;;;4.00;;
49296;SDS011;35163;48.878;18.040;2023-05-27T08:44:17;16.85;;;4.63;;
49296;SDS011;35163;48.878;18.040;2023-05-27T08:46:50;9.52;;;3.53;;
49296;SDS011;35163;48.878;18.040;2023-05-27T08:49:17;11.05;;;3.67;;
49296;SDS011;35163;48.878;18.040;2023-05-27T08:51:44;10.50;;;3.70;;
49296;SDS011;35163;48.878;18.040;2023-05-27T08:54:12;10.63;;;3.63;;
49296;SDS011;35163;48.878;18.040;2023-05-27T08:56:39;13.55;;;3.67;;
49296;SDS011;35163;48.878;18.040;2023-05-27T08:59:06;13.30;;;3.58;;
49296;SDS011;35163;48.878;18.040;2023-05-27T09:01:34;12.52;;;3.70;;
49296;SDS011;35163;48.878;18.040;2023-05-27T09:04:02;10.40;;;4.10;;
49296;SDS011;35163;48.878;18.040;2023-05-27T09:06:30;11.80;;;4.13;;
49296;SDS011;35163;48.878;18.040;2023-05-27T09:08:57;9.30;;;3.78;;
49296;SDS011;35163;48.878;18.040;2023-05-27T09:11:24;19.67;;;3.80;;
49296;SDS011;35163;48.878;18.040;2023-05-27T09:13:57;10.95;;;4.22;;
49296;SDS011;35163;48.878;18.040;2023-05-27T09:16:23;11.88;;;3.70;;
49296;SDS011;35163;48.878;18.040;2023-05-27T09:18:51;9.57;;;3.35;;
49296;SDS011;35163;48.878;18.040;2023-05-27T09:21:17;11.77;;;3.70;;
49296;SDS011;35163;48.878;18.040;2023-05-27T09:23:46;13.52;;;4.13;;
49296;SDS011;35163;48.878;18.040;2023-05-27T09:26:13;9.75;;;3.33;;
49296;SDS011;35163;48.878;18.040;2023-05-27T09:28:47;13.57;;;4.15;;
49296;SDS011;35163;48.878;18.040;2023-05-27T09:31:14;10.30;;;3.60;;
49296;SDS011;35163;48.878;18.040;2023-05-27T09:33:41;14.32;;;3.72;;
49296;SDS011;35163;48.878;18.040;2023-05-27T09:36:14;32.80;;;4.97;;
49296;SDS011;35163;48.878;18.040;2023-05-27T09:38:47;15.63;;;3.78;;
49296;SDS011;35163;48.878;18.040;2023-05-27T09:41:14;16.73;;;4.07;;
49296;SDS011;35163;48.878;18.040;2023-05-27T09:43:53;11.50;;;3.50;;
49296;SDS011;35163;48.878;18.040;2023-05-27T09:46:20;10.30;;;3.27;;
49296;SDS011;35163;48.878;18.040;2023-05-27T09:48:47;13.88;;;4.25;;
49296;SDS011;35163;48.878;18.040;2023-05-27T09:51:19;10.30;;;3.38;;
49296;SDS011;35163;48.878;18.040;2023-05-27T09:53:46;9.65;;;3.25;;
49296;SDS011;35163;48.878;18.040;2023-05-27T09:56:13;11.85;;;3.75;;
49296;SDS011;35163;48.878;18.040;2023-05-27T09:58:41;15.27;;;3.72;;
49296;SDS011;35163;48.878;18.040;2023-05-27T10:01:09;11.95;;;3.90;;
49296;SDS011;35163;48.878;18.040;2023-05-27T10:03:36;10.75;;;3.80;;
49296;SDS011;35163;48.878;18.040;2023-05-27T10:06:04;13.93;;;3.83;;
49296;SDS011;35163;48.878;18.040;2023-05-27T10:08:31;11.65;;;3.55;;
49296;SDS011;35163;48.878;18.040;2023-05-27T10:10:58;12.60;;;3.47;;
49296;SDS011;35163;48.878;18.040;2023-05-27T10:13:25;9.25;;;3.22;;
49296;SDS011;35163;48.878;18.040;2023-05-27T10:15:53;13.75;;;3.70;;
49296;SDS011;35163;48.878;18.040;2023-05-27T10:18:23;10.68;;;3.53;;
49296;SDS011;35163;48.878;18.040;2023-05-27T10:20:53;10.20;;;4.07;;
49296;SDS011;35163;48.878;18.040;2023-05-27T10:23:23;14.27;;;3.63;;
49296;SDS011;35163;48.878;18.040;2023-05-27T10:26:02;13.38;;;3.85;;
49296;SDS011;35163;48.878;18.040;2023-05-27T10:28:29;10.75;;;3.55;;
49296;SDS011;35163;48.878;18.040;2023-05-27T10:31:10;8.43;;;3.42;;
49296;SDS011;35163;48.878;18.040;2023-05-27T10:33:47;10.85;;;3.92;;
49296;SDS011;35163;48.878;18.040;2023-05-27T10:36:16;12.10;;;3.72;;
49296;SDS011;35163;48.878;18.040;2023-05-27T10:38:54;10.05;;;3.30;;
49296;SDS011;35163;48.878;18.040;2023-05-27T10:41:23;10.43;;;3.08;;
49296;SDS011;35163;48.878;18.040;2023-05-27T10:43:56;10.88;;;3.90;;
49296;SDS011;35163;48.878;18.040;2023-05-27T10:46:24;12.63;;;3.72;;
49296;SDS011;35163;48.878;18.040;2023-05-27T10:48:52;14.82;;;3.97;;
49296;SDS011;35163;48.878;18.040;2023-05-27T10:51:18;9.32;;;3.78;;
49296;SDS011;35163;48.878;18.040;2023-05-27T10:53:45;12.43;;;3.38;;
49296;SDS011;35163;48.878;18.040;2023-05-27T10:56:23;15.80;;;4.45;;
49296;SDS011;35163;48.878;18.040;2023-05-27T10:58:52;15.07;;;3.38;;
49296;SDS011;35163;48.878;18.040;2023-05-27T11:01:22;8.45;;;3.30;;
49296;SDS011;35163;48.878;18.040;2023-05-27T11:03:57;11.77;;;3.38;;
49296;SDS011;35163;48.878;18.040;2023-05-27T11:06:25;13.40;;;3.95;;
49296;SDS011;35163;48.878;18.040;2023-05-27T11:08:51;10.10;;;3.58;;
49296;SDS011;35163;48.878;18.040;2023-05-27T11:11:22;10.45;;;3.75;;
49296;SDS011;35163;48.878;18.040;2023-05-27T11:13:49;10.75;;;4.15;;
49296;SDS011;35163;48.878;18.040;2023-05-27T11:16:16;24.95;;;3.80;;
49296;SDS011;35163;48.878;18.040;2023-05-27T11:21:11;8.00;;;2.95;;
49296;SDS011;35163;48.878;18.040;2023-05-27T11:23:48;10.23;;;3.13;;
49296;SDS011;35163;48.878;18.040;2023-05-27T11:26:22;14.68;;;3.70;;
49296;SDS011;35163;48.878;18.040;2023-05-27T11:28:53;14.20;;;4.35;;
49296;SDS011;35163;48.878;18.040;2023-05-27T11:31:27;10.75;;;3.75;;
49296;SDS011;35163;48.878;18.040;2023-05-27T11:33:55;12.95;;;4.30;;
49296;SDS011;35163;48.878;18.040;2023-05-27T11:36:27;10.93;;;3.75;;
49296;SDS011;35163;48.878;18.040;2023-05-27T11:38:58;8.13;;;3.10;;
49296;SDS011;35163;48.878;18.040;2023-05-27T11:41:27;10.20;;;3.50;;
49296;SDS011;35163;48.878;18.040;2023-05-27T11:44:06;13.55;;;3.50;;
49296;SDS011;35163;48.878;18.040;2023-05-27T11:46:36;13.45;;;4.82;;
49296;SDS011;35163;48.878;18.040;2023-05-27T11:49:04;18.10;;;4.15;;
49296;SDS011;35163;48.878;18.040;2023-05-27T11:51:42;12.35;;;4.15;;
49296;SDS011;35163;48.878;18.040;2023-05-27T11:54:22;11.18;;;3.15;;
49296;SDS011;35163;48.878;18.040;2023-05-27T11:56:53;8.13;;;3.33;;
49296;SDS011;35163;48.878;18.040;2023-05-27T11:59:21;12.82;;;4.07;;
49296;SDS011;35163;48.878;18.040;2023-05-27T12:01:50;11.82;;;3.80;;
49296;SDS011;35163;48.878;18.040;2023-05-27T12:04:17;13.70;;;4.38;;
49296;SDS011;35163;48.878;18.040;2023-05-27T12:06:44;10.82;;;3.97;;
49296;SDS011;35163;48.878;18.040;2023-05-27T12:09:12;14.05;;;4.57;;
49296;SDS011;35163;48.878;18.040;2023-05-27T12:11:39;12.13;;;3.40;;
49296;SDS011;35163;48.878;18.040;2023-05-27T12:14:09;15.70;;;3.95;;
49296;SDS011;35163;48.878;18.040;2023-05-27T12:16:36;14.73;;;4.50;;
49296;SDS011;35163;48.878;18.040;2023-05-27T12:19:02;11.18;;;4.03;;
49296;SDS011;35163;48.878;18.040;2023-05-27T12:21:36;13.57;;;4.07;;
49296;SDS011;35163;48.878;18.040;2023-05-27T12:24:03;11.63;;;3.90;;
49296;SDS011;35163;48.878;18.040;2023-05-27T12:26:30;13.40;;;3.88;;
49296;SDS011;35163;48.878;18.040;2023-05-27T12:28:57;13.27;;;3.78;;
49296;SDS011;35163;48.878;18.040;2023-05-27T12:31:23;10.00;;;3.90;;
49296;SDS011;35163;48.878;18.040;2023-05-27T12:33:50;12.77;;;4.28;;
49296;SDS011;35163;48.878;18.040;2023-05-27T12:36:17;10.13;;;3.53;;
49296;SDS011;35163;48.878;18.040;2023-05-27T12:38:46;10.65;;;4.15;;
49296;SDS011;35163;48.878;18.040;2023-05-27T12:41:13;12.63;;;3.28;;
49296;SDS011;35163;48.878;18.040;2023-05-27T12:43:39;16.08;;;4.82;;
49296;SDS011;35163;48.878;18.040;2023-05-27T12:46:06;11.45;;;3.75;;
49296;SDS011;35163;48.878;18.040;2023-05-27T12:48:33;14.57;;;3.53;;
49296;SDS011;35163;48.878;18.040;2023-05-27T12:50:59;13.43;;;4.13;;
49296;SDS011;35163;48.878;18.040;2023-05-27T12:53:26;12.90;;;3.83;;
49296;SDS011;35163;48.878;18.040;2023-05-27T12:55:53;11.63;;;4.30;;
49296;SDS011;35163;48.878;18.040;2023-05-27T12:58:20;9.73;;;4.07;;
49296;SDS011;35163;48.878;18.040;2023-05-27T13:00:48;14.30;;;4.07;;
49296;SDS011;35163;48.878;18.040;2023-05-27T13:03:15;17.55;;;4.55;;
49296;SDS011;35163;48.878;18.040;2023-05-27T13:05:42;15.55;;;4.05;;
49296;SDS011;35163;48.878;18.040;2023-05-27T13:08:09;10.10;;;3.92;;
49296;SDS011;35163;48.878;18.040;2023-05-27T13:10:36;19.27;;;4.07;;
49296;SDS011;35163;48.878;18.040;2023-05-27T13:13:03;9.77;;;3.70;;
49296;SDS011;35163;48.878;18.040;2023-05-27T13:15:29;10.68;;;4.03;;
49296;SDS011;35163;48.878;18.040;2023-05-27T13:17:57;15.13;;;4.65;;
49296;SDS011;35163;48.878;18.040;2023-05-27T13:20:26;14.82;;;3.90;;
49296;SDS011;35163;48.878;18.040;2023-05-27T13:22:56;11.68;;;3.42;;
49296;SDS011;35163;48.878;18.040;2023-05-27T13:25:29;13.95;;;4.03;;
49296;SDS011;35163;48.878;18.040;2023-05-27T13:27:59;10.63;;;4.03;;
49296;SDS011;35163;48.878;18.040;2023-05-27T13:30:26;10.75;;;3.70;;
49296;SDS011;35163;48.878;18.040;2023-05-27T13:32:56;19.23;;;3.92;;
49296;SDS011;35163;48.878;18.040;2023-05-27T13:35:23;10.57;;;3.50;;
49296;SDS011;35163;48.878;18.040;2023-05-27T13:37:49;10.90;;;3.75;;
49296;SDS011;35163;48.878;18.040;2023-05-27T13:40:16;13.05;;;3.58;;
49296;SDS011;35163;48.878;18.040;2023-05-27T13:42:45;16.45;;;4.25;;
49296;SDS011;35163;48.878;18.040;2023-05-27T13:45:13;10.20;;;3.70;;
49296;SDS011;35163;48.878;18.040;2023-05-27T13:47:41;14.63;;;4.28;;
49296;SDS011;35163;48.878;18.040;2023-05-27T13:50:10;16.85;;;4.60;;
49296;SDS011;35163;48.878;18.040;2023-05-27T13:52:37;12.32;;;4.10;;
49296;SDS011;35163;48.878;18.040;2023-05-27T13:55:05;11.13;;;4.40;;
49296;SDS011;35163;48.878;18.040;2023-05-27T13:57:32;10.88;;;3.65;;
49296;SDS011;35163;48.878;18.040;2023-05-27T14:00:02;13.85;;;3.92;;
49296;SDS011;35163;48.878;18.040;2023-05-27T14:02:29;12.52;;;4.20;;
49296;SDS011;35163;48.878;18.040;2023-05-27T14:04:57;12.73;;;4.00;;
49296;SDS011;35163;48.878;18.040;2023-05-27T14:07:24;10.05;;;3.50;;
49296;SDS011;35163;48.878;18.040;2023-05-27T14:09:53;14.10;;;4.00;;
49296;SDS011;35163;48.878;18.040;2023-05-27T14:12:22;12.63;;;4.53;;
49296;SDS011;35163;48.878;18.040;2023-05-27T14:14:49;11.18;;;4.03;;
49296;SDS011;35163;48.878;18.040;2023-05-27T14:17:16;13.75;;;3.55;;
49296;SDS011;35163;48.878;18.040;2023-05-27T14:19:43;10.65;;;4.00;;
49296;SDS011;35163;48.878;18.040;2023-05-27T14:22:09;13.48;;;4.00;;
49296;SDS011;35163;48.878;18.040;2023-05-27T14:24:36;15.60;;;3.70;;
49296;SDS011;35163;48.878;18.040;2023-05-27T14:27:03;13.05;;;4.00;;
49296;SDS011;35163;48.878;18.040;2023-05-27T14:29:29;9.57;;;3.58;;
49296;SDS011;35163;48.878;18.040;2023-05-27T14:31:56;15.68;;;4.32;;
49296;SDS011;35163;48.878;18.040;2023-05-27T14:34:23;15.48;;;4.00;;
49296;SDS011;35163;48.878;18.040;2023-05-27T14:36:49;9.38;;;3.22;;